createdAt,value
2022-09-10T00:01:30.309Z,102533.34
2022-09-10T00:03:59.134Z,102532.53
2022-09-10T00:06:28.281Z,102534.28
2022-09-10T00:08:58.741Z,102533.44
2022-09-10T00:11:31.762Z,102536.97
2022-09-10T00:13:59.667Z,102541.31
2022-09-10T00:16:29.003Z,102543.94
2022-09-10T00:18:57.470Z,102544.69
2022-09-10T00:21:25.954Z,102541.13
2022-09-10T00:23:54.401Z,102535.75
2022-09-10T00:26:27.313Z,102533.91
2022-09-10T00:28:56.828Z,102539.00
2022-09-10T00:31:25.559Z,102543.19
2022-09-10T00:33:54.945Z,102547.38
2022-09-10T00:36:25.646Z,102550.63
2022-09-10T00:38:55.961Z,102557.41
2022-09-10T00:41:25.982Z,102551.94
2022-09-10T00:43:56.367Z,102553.53
2022-09-10T00:46:30.755Z,102546.34
2022-09-10T00:49:02.075Z,102545.38
2022-09-10T00:51:34.585Z,102540.09
2022-09-10T00:54:04.195Z,102543.59
2022-09-10T00:56:34.930Z,102546.19
2022-09-10T00:59:04.947Z,102543.44
2022-09-10T01:01:33.835Z,102539.84
2022-09-10T01:04:02.659Z,102545.13
2022-09-10T01:06:31.217Z,102553.78
2022-09-10T01:08:59.870Z,102562.50
2022-09-10T01:11:42.469Z,102563.28
2022-09-10T01:14:25.636Z,102567.47
2022-09-10T01:17:04.556Z,102562.94
2022-09-10T01:20:08.131Z,102567.06
2022-09-10T01:22:51.590Z,102560.78
2022-09-10T01:25:32.149Z,102569.31
2022-09-10T01:28:08.277Z,102569.97
2022-09-10T01:30:42.987Z,102568.06
2022-09-10T01:33:17.872Z,102575.84
2022-09-10T01:35:50.470Z,102579.25
2022-09-10T01:38:23.223Z,102578.25
2022-09-10T01:40:51.784Z,102577.31
2022-09-10T01:43:22.740Z,102580.75
2022-09-10T01:46:05.360Z,102576.41
2022-09-10T01:48:55.993Z,102576.41
2022-09-10T01:51:34.971Z,102573.13
2022-09-10T01:54:25.461Z,102575.84
2022-09-10T01:57:06.597Z,102583.66
2022-09-10T01:59:44.472Z,102584.50
2022-09-10T02:02:19.219Z,102586.16
2022-09-10T02:04:48.294Z,102586.06
2022-09-10T02:07:19.251Z,102581.66
2022-09-10T02:09:47.510Z,102576.41
2022-09-10T02:12:22.005Z,102570.50
2022-09-10T02:14:55.288Z,102575.09
2022-09-10T02:17:26.327Z,102577.91
2022-09-10T02:19:56.231Z,102588.59
2022-09-10T02:22:24.968Z,102593.13
2022-09-10T02:24:53.236Z,102596.78
2022-09-10T02:27:21.256Z,102578.66
2022-09-10T02:29:49.570Z,102585.81
2022-09-10T02:32:18.835Z,102595.59
2022-09-10T02:34:46.889Z,102597.47
2022-09-10T02:37:16.045Z,102591.47
2022-09-10T02:39:44.966Z,102596.84
2022-09-10T02:42:14.363Z,102589.03
2022-09-10T02:44:42.408Z,102595.19
2022-09-10T02:47:10.359Z,102586.53
2022-09-10T02:49:39.765Z,102587.44
2022-09-10T02:52:08.770Z,102583.03
2022-09-10T02:54:37.068Z,102590.03
2022-09-10T02:57:05.509Z,102592.56
2022-09-10T02:59:33.924Z,102582.16
2022-09-10T03:02:01.917Z,102589.16
2022-09-10T03:04:29.969Z,102591.66
2022-09-10T03:06:59.364Z,102590.75
2022-09-10T03:09:29.038Z,102592.31
2022-09-10T03:11:57.068Z,102583.53
2022-09-10T03:14:25.882Z,102590.47
2022-09-10T03:16:53.892Z,102593.91
2022-09-10T03:19:22.061Z,102588.50
2022-09-10T03:21:50.056Z,102582.28
2022-09-10T03:24:19.453Z,102578.66
2022-09-10T03:26:47.597Z,102568.94
2022-09-10T03:29:16.041Z,102568.94
2022-09-10T03:31:46.447Z,102568.94
2022-09-10T03:34:14.727Z,102574.97
2022-09-10T03:36:42.755Z,102585.44
2022-09-10T03:39:10.719Z,102577.41
2022-09-10T03:41:40.214Z,102582.59
2022-09-10T03:44:08.429Z,102586.97
2022-09-10T03:46:37.726Z,102579.91
2022-09-10T03:49:05.725Z,102582.53
2022-09-10T03:51:34.149Z,102582.53
2022-09-10T03:54:02.611Z,102577.22
2022-09-10T03:56:30.613Z,102579.84
2022-09-10T03:59:00.554Z,102585.16
2022-09-10T04:01:28.790Z,102588.66
2022-09-10T04:03:58.295Z,102593.13
2022-09-10T04:06:26.290Z,102585.50
2022-09-10T04:08:54.366Z,102590.97
2022-09-10T04:11:24.334Z,102600.75
2022-09-10T04:13:52.536Z,102602.59
2022-09-10T04:16:23.511Z,102606.13
2022-09-10T04:18:51.814Z,102613.09
2022-09-10T04:21:20.374Z,102620.13
2022-09-10T04:23:48.516Z,102610.53
2022-09-10T04:26:18.394Z,102616.66
2022-09-10T04:28:46.952Z,102614.00
2022-09-10T04:31:14.881Z,102615.84
2022-09-10T04:33:44.976Z,102619.47
2022-09-10T04:36:14.284Z,102615.00
2022-09-10T04:38:43.449Z,102627.25
2022-09-10T04:41:12.206Z,102621.91
2022-09-10T04:43:40.890Z,102606.25
2022-09-10T04:46:08.954Z,102608.22
2022-09-10T04:48:36.911Z,102615.44
2022-09-10T04:51:16.307Z,102619.13
2022-09-10T04:53:44.931Z,102620.03
2022-09-10T04:56:13.413Z,102617.53
2022-09-10T04:58:42.275Z,102610.63
2022-09-10T05:01:10.585Z,102610.75
2022-09-10T05:03:38.940Z,102603.00
2022-09-10T05:06:08.584Z,102599.63
2022-09-10T05:08:36.814Z,102589.38
2022-09-10T05:11:05.190Z,102586.84
2022-09-10T05:13:33.180Z,102578.16
2022-09-10T05:16:01.795Z,102570.31
2022-09-10T05:18:29.708Z,102555.44
2022-09-10T05:20:57.631Z,102546.63
2022-09-10T05:23:27.365Z,102547.41
2022-09-10T05:25:56.791Z,102532.47
2022-09-10T05:28:25.123Z,102532.47
2022-09-10T05:30:53.116Z,102524.53
2022-09-10T05:33:21.482Z,102514.06
2022-09-10T05:35:51.803Z,102522.81
2022-09-10T05:38:21.450Z,102522.88
2022-09-10T05:40:51.137Z,102527.38
2022-09-10T05:43:19.087Z,102528.28
2022-09-10T05:45:49.719Z,102541.50
2022-09-10T05:48:17.766Z,102537.06
2022-09-10T05:50:46.570Z,102532.69
2022-09-10T05:53:14.921Z,102525.63
2022-09-10T05:55:44.468Z,102534.31
2022-09-10T05:58:15.073Z,102532.63
2022-09-10T06:00:44.079Z,102539.53
2022-09-10T06:03:13.758Z,102535.97
2022-09-10T06:05:42.007Z,102533.13
2022-09-10T06:08:10.524Z,102532.97
2022-09-10T06:10:38.673Z,102533.63
2022-09-10T06:13:07.932Z,102526.31
2022-09-10T06:15:38.042Z,102523.50
2022-09-10T06:18:06.084Z,102516.31
2022-09-10T06:20:34.165Z,102520.47
2022-09-10T06:23:02.128Z,102526.34
2022-09-10T06:25:31.243Z,102535.66
2022-09-10T06:27:59.152Z,102538.81
2022-09-10T06:30:27.259Z,102546.50
2022-09-10T06:32:57.570Z,102559.59
2022-09-10T06:35:27.232Z,102574.34
2022-09-10T06:37:56.140Z,102598.53
2022-09-10T06:40:27.771Z,102600.59
2022-09-10T06:42:55.773Z,102627.31
2022-09-10T06:45:24.220Z,102641.03
2022-09-10T06:48:37.019Z,102682.09
2022-09-10T06:50:51.666Z,102713.81
2022-09-10T06:53:22.166Z,102733.25
2022-09-10T06:55:50.892Z,102752.69
2022-09-10T06:58:20.075Z,102755.31
2022-09-10T07:00:48.656Z,102765.72
2022-09-10T07:03:17.564Z,102775.38
2022-09-10T07:05:47.824Z,102779.69
2022-09-10T07:08:17.789Z,102782.16
2022-09-10T07:10:46.833Z,102786.34
2022-09-10T07:13:15.075Z,102795.03
2022-09-10T07:15:46.837Z,102802.09
2022-09-10T07:18:24.136Z,102816.09
2022-09-10T07:20:54.030Z,102825.59
2022-09-10T07:23:40.798Z,102835.03
2022-09-10T07:26:11.516Z,102842.59
2022-09-10T07:28:42.451Z,102841.41
2022-09-10T07:31:15.758Z,102848.28
2022-09-10T07:33:44.003Z,102855.97
2022-09-10T07:36:13.615Z,102874.91
2022-09-10T07:38:42.889Z,102883.06
2022-09-10T07:41:13.346Z,102887.81
2022-09-10T07:43:41.771Z,102889.78
2022-09-10T07:46:13.691Z,102898.03
2022-09-10T07:48:41.738Z,102904.81
2022-09-10T07:51:11.191Z,102893.41
2022-09-10T07:53:49.990Z,102881.47
2022-09-10T07:56:18.320Z,102881.94
2022-09-10T07:58:46.372Z,102881.41
2022-09-10T08:01:16.193Z,102887.88
2022-09-10T08:03:45.030Z,102879.31
2022-09-10T08:06:13.385Z,102884.78
2022-09-10T08:08:43.216Z,102882.53
2022-09-10T08:11:13.669Z,102883.72
2022-09-10T08:13:42.534Z,102878.69
2022-09-10T08:16:15.541Z,102880.41
2022-09-10T08:18:44.777Z,102903.69
2022-09-10T08:21:13.726Z,102904.22
2022-09-10T08:23:44.916Z,102901.38
2022-09-10T08:26:12.889Z,102890.03
2022-09-10T08:28:43.348Z,102893.63
2022-09-10T08:31:13.027Z,102900.47
2022-09-10T08:33:41.405Z,102899.66
2022-09-10T08:36:12.298Z,102913.13
2022-09-10T08:38:45.694Z,102907.84
2022-09-10T08:41:28.262Z,102890.56
2022-09-10T08:44:01.179Z,102869.75
2022-09-10T08:46:33.483Z,102874.88
2022-09-10T08:49:08.425Z,102866.84
2022-09-10T08:51:45.491Z,102877.00
2022-09-10T08:54:18.049Z,102863.41
2022-09-10T08:56:47.534Z,102869.03
2022-09-10T08:59:22.702Z,102862.41
2022-09-10T09:01:55.033Z,102853.31
2022-09-10T09:04:33.154Z,102837.25
2022-09-10T09:07:04.546Z,102819.78
2022-09-10T09:09:33.938Z,102822.06
2022-09-10T09:12:14.404Z,102824.34
2022-09-10T09:14:56.606Z,102830.19
2022-09-10T09:17:37.474Z,102842.06
2022-09-10T09:20:18.126Z,102853.88
2022-09-10T09:22:53.309Z,102871.34
2022-09-10T09:25:31.459Z,102873.53
2022-09-10T09:27:59.777Z,102871.91
2022-09-10T09:30:34.100Z,102873.47
2022-09-10T09:33:12.410Z,102873.28
2022-09-10T09:35:47.555Z,102861.47
2022-09-10T09:38:22.357Z,102860.84
2022-09-10T09:40:56.442Z,102847.16
2022-09-10T09:43:34.090Z,102851.16
2022-09-10T09:46:03.420Z,102855.81
2022-09-10T09:48:38.833Z,102853.81
2022-09-10T09:51:11.616Z,102877.69
2022-09-10T09:53:42.300Z,102867.72
2022-09-10T09:56:22.404Z,102850.13
2022-09-10T09:58:52.105Z,102857.16
2022-09-10T10:01:23.126Z,102861.19
2022-09-10T10:03:58.780Z,102849.19
2022-09-10T10:06:29.704Z,102846.28
2022-09-10T10:09:03.608Z,102831.75
2022-09-10T10:11:47.257Z,102809.25
2022-09-10T10:14:24.832Z,102787.00
2022-09-10T10:16:57.356Z,102800.06
2022-09-10T10:19:34.211Z,102793.75
2022-09-10T10:22:25.122Z,102766.91
2022-09-10T10:24:54.449Z,102742.41
2022-09-10T10:27:33.036Z,102730.47
2022-09-10T10:30:04.690Z,102736.56
2022-09-10T10:32:44.729Z,102726.94
2022-09-10T10:35:32.832Z,102732.16
2022-09-10T10:38:26.470Z,102731.13
2022-09-10T10:41:08.247Z,102726.00
2022-09-10T10:43:51.963Z,102723.91
2022-09-10T10:46:23.077Z,102728.06
2022-09-10T10:49:03.822Z,102718.91
2022-09-10T10:51:41.597Z,102678.66
2022-09-10T10:54:35.283Z,102671.16
2022-09-10T10:57:17.736Z,102664.97
2022-09-10T10:59:55.084Z,102668.53
2022-09-10T11:02:34.901Z,102670.13
2022-09-10T11:05:17.026Z,102678.28
2022-09-10T11:07:45.839Z,102662.75
2022-09-10T11:10:21.103Z,102660.34
2022-09-10T11:12:53.624Z,102659.94
2022-09-10T11:15:33.487Z,102647.22
2022-09-10T11:18:08.543Z,102645.25
2022-09-10T11:20:42.525Z,102647.13
2022-09-10T11:23:20.719Z,102653.91
2022-09-10T11:25:56.579Z,102650.72
2022-09-10T11:28:30.055Z,102654.81
2022-09-10T11:31:07.818Z,102655.09
2022-09-10T11:33:44.231Z,102656.94
2022-09-10T11:36:18.520Z,102659.03
2022-09-10T11:38:55.731Z,102656.59
2022-09-10T11:41:25.271Z,102652.66
2022-09-10T11:44:00.714Z,102655.88
2022-09-10T11:46:35.562Z,102640.53
2022-09-10T11:49:10.439Z,102648.28
2022-09-10T11:51:40.012Z,102649.63
2022-09-10T11:54:13.453Z,102654.63
2022-09-10T11:56:59.680Z,102641.09
2022-09-10T11:59:51.778Z,102633.50
2022-09-10T12:02:59.308Z,102636.16
2022-09-10T12:05:36.691Z,102636.31
2022-09-10T12:08:17.627Z,102634.63
2022-09-10T12:10:54.280Z,102635.78
2022-09-10T12:13:23.119Z,102634.69
2022-09-10T12:15:56.064Z,102635.56
2022-09-10T12:18:29.171Z,102646.50
2022-09-10T12:21:02.639Z,102642.03
2022-09-10T12:23:33.664Z,102656.84
2022-09-10T12:26:07.324Z,102642.16
2022-09-10T12:29:06.724Z,102657.91
2022-09-10T12:32:12.318Z,102666.09
2022-09-10T12:34:42.360Z,102657.34
2022-09-10T12:37:27.880Z,102662.50
2022-09-10T12:40:49.684Z,102659.53
2022-09-10T12:43:54.092Z,102646.53
2022-09-10T12:46:25.787Z,102645.66
2022-09-10T12:49:11.860Z,102640.81
2022-09-10T12:51:58.013Z,102651.75
2022-09-10T12:54:45.788Z,102641.03
2022-09-10T12:57:40.420Z,102641.94
2022-09-10T13:00:17.973Z,102648.09
2022-09-10T13:02:52.077Z,102658.56
2022-09-10T13:05:27.319Z,102653.78
2022-09-10T13:08:12.579Z,102651.44
2022-09-10T13:10:42.266Z,102645.13
2022-09-10T13:13:34.410Z,102652.13
2022-09-10T13:16:03.754Z,102645.03
2022-09-10T13:18:33.932Z,102642.66
2022-09-10T13:21:51.097Z,102641.66
2022-09-10T13:24:59.815Z,102636.50
2022-09-10T13:27:38.969Z,102617.41
2022-09-10T13:30:17.790Z,102611.13
2022-09-10T13:32:52.195Z,102614.63
2022-09-10T13:35:47.315Z,102600.66
2022-09-10T13:38:30.004Z,102573.03
2022-09-10T13:41:27.373Z,102571.22
2022-09-10T13:44:21.526Z,102555.56
2022-09-10T13:46:55.123Z,102518.94
2022-09-10T13:49:31.275Z,102369.66
2022-09-10T13:52:02.228Z,102301.22
2022-09-10T13:54:35.685Z,102305.22
2022-09-10T13:57:13.595Z,102296.59
2022-09-10T13:59:42.905Z,102279.53
2022-09-10T14:02:10.811Z,102272.38
2022-09-10T14:04:44.745Z,102264.94
2022-09-10T14:07:16.202Z,102265.22
2022-09-10T14:09:46.575Z,102271.00
2022-09-10T14:12:19.216Z,102265.78
2022-09-10T14:14:51.634Z,102270.91
2022-09-10T14:17:23.544Z,102266.38
2022-09-10T14:19:57.967Z,102276.25
2022-09-10T14:22:27.170Z,102276.41
2022-09-10T14:24:56.512Z,102273.44
2022-09-10T14:27:28.480Z,102264.88
2022-09-10T14:29:57.764Z,102266.44
2022-09-10T14:32:30.807Z,102253.97
2022-09-10T14:34:59.395Z,102259.97
2022-09-10T14:37:45.234Z,102255.97
2022-09-10T14:40:19.236Z,102256.81
2022-09-10T14:42:49.726Z,102254.25
2022-09-10T14:45:40.058Z,102259.34
2022-09-10T14:48:28.557Z,102251.78
2022-09-10T14:51:18.801Z,102253.53
2022-09-10T14:53:51.054Z,102257.31
2022-09-10T14:56:24.782Z,102267.50
2022-09-10T14:58:59.312Z,102271.38
2022-09-10T15:01:27.237Z,102268.84
2022-09-10T15:03:55.289Z,102280.91
2022-09-10T15:06:26.367Z,102286.75
2022-09-10T15:08:56.888Z,102300.16
2022-09-10T15:11:27.290Z,102280.09
2022-09-10T15:13:59.257Z,102284.28
2022-09-10T15:16:27.644Z,102285.47
2022-09-10T15:18:55.604Z,102294.47
2022-09-10T15:21:23.519Z,102318.50
2022-09-10T15:23:51.935Z,102336.28
2022-09-10T15:26:19.869Z,102347.16
2022-09-10T15:28:47.804Z,102364.97
2022-09-10T15:31:28.455Z,102378.91
2022-09-10T15:33:58.650Z,102398.78
2022-09-10T15:36:28.354Z,102400.75
2022-09-10T15:38:59.741Z,102402.03
2022-09-10T15:41:27.965Z,102404.38
2022-09-10T15:43:55.882Z,102398.16
2022-09-10T15:46:25.302Z,102407.19
2022-09-10T15:48:53.785Z,102401.47
2022-09-10T15:51:23.875Z,102394.97
2022-09-10T15:53:53.639Z,102385.94
2022-09-10T15:56:24.218Z,102384.28
2022-09-10T15:58:55.090Z,102395.56
2022-09-10T16:01:25.150Z,102388.91
2022-09-10T16:03:56.418Z,102373.88
2022-09-10T16:06:27.377Z,102387.75
2022-09-10T16:08:57.789Z,102384.19
2022-09-10T16:11:26.472Z,102394.63
2022-09-10T16:13:54.659Z,102387.75
2022-09-10T16:16:24.350Z,102393.16
2022-09-10T16:18:55.607Z,102390.75
2022-09-10T16:21:26.248Z,102397.81
2022-09-10T16:23:56.737Z,102398.59
2022-09-10T16:26:27.619Z,102411.91
2022-09-10T16:28:57.171Z,102420.44
2022-09-10T16:31:26.968Z,102436.56
2022-09-10T16:33:58.628Z,102445.59
2022-09-10T16:36:27.215Z,102467.38
2022-09-10T16:38:56.865Z,102482.84
2022-09-10T16:41:26.933Z,102516.16
2022-09-10T16:43:56.793Z,102545.41
2022-09-10T16:46:25.014Z,102601.63
2022-09-10T16:48:54.587Z,102648.94
2022-09-10T16:51:25.795Z,102682.00
2022-09-10T16:53:56.972Z,102715.53
2022-09-10T16:56:26.103Z,102738.66
2022-09-10T16:58:54.110Z,102749.44
2022-09-10T17:01:22.096Z,102763.09
2022-09-10T17:03:50.804Z,102770.94
2022-09-10T17:06:20.157Z,102772.25
2022-09-10T17:08:50.144Z,102762.44
2022-09-10T17:11:19.682Z,102750.63
2022-09-10T17:13:48.268Z,102736.22
2022-09-10T17:16:25.715Z,102721.72
2022-09-10T17:18:58.111Z,102696.13
2022-09-10T17:21:26.847Z,102680.59
2022-09-10T17:23:57.250Z,102662.41
2022-09-10T17:26:25.368Z,102649.69
2022-09-10T17:28:55.060Z,102642.69
2022-09-10T17:31:27.516Z,102635.88
2022-09-10T17:33:56.715Z,102630.59
2022-09-10T17:36:28.227Z,102634.84
2022-09-10T17:38:59.382Z,102632.59
2022-09-10T17:41:28.106Z,102646.66
2022-09-10T17:43:56.698Z,102643.59
2022-09-10T17:46:25.403Z,102654.53
2022-09-10T17:48:54.695Z,102667.41
2022-09-10T17:51:24.491Z,102664.75
2022-09-10T17:53:54.028Z,102670.25
2022-09-10T17:56:25.239Z,102683.78
2022-09-10T17:58:57.180Z,102700.72
2022-09-10T18:01:26.895Z,102716.41
2022-09-10T18:03:55.887Z,102730.19
2022-09-10T18:06:25.231Z,102738.50
2022-09-10T18:08:53.744Z,102747.75
2022-09-10T18:11:27.168Z,102759.75
2022-09-10T18:13:57.204Z,102767.66
2022-09-10T18:16:27.914Z,102773.75
2022-09-10T18:18:58.323Z,102784.94
2022-09-10T18:21:29.513Z,102796.94
2022-09-10T18:24:00.289Z,102803.84
2022-09-10T18:26:31.623Z,102809.72
2022-09-10T18:29:02.064Z,102809.34
2022-09-10T18:31:32.345Z,102822.41
2022-09-10T18:34:01.911Z,102826.44
2022-09-10T18:36:30.500Z,102836.81
2022-09-10T18:38:58.957Z,102847.84
2022-09-10T18:41:28.139Z,102847.31
2022-09-10T18:43:59.788Z,102856.41
2022-09-10T18:46:29.160Z,102870.00
2022-09-10T18:48:57.870Z,102872.94
2022-09-10T18:51:27.794Z,102871.53
2022-09-10T18:53:58.300Z,102887.69
2022-09-10T18:56:27.512Z,102898.41
2022-09-10T18:58:58.829Z,102899.34
2022-09-10T19:01:29.321Z,102903.00
2022-09-10T19:03:58.066Z,102912.63
2022-09-10T19:06:28.911Z,102922.41
2022-09-10T19:08:59.058Z,102933.84
2022-09-10T19:11:33.469Z,102939.16
2022-09-10T19:14:04.913Z,102956.00
2022-09-10T19:16:35.120Z,102971.22
2022-09-10T19:19:05.479Z,102969.72
2022-09-10T19:21:35.376Z,102974.44
2022-09-10T19:24:04.361Z,102978.06
2022-09-10T19:26:34.480Z,102986.13
2022-09-10T19:29:05.659Z,102994.09
2022-09-10T19:31:35.977Z,103010.03
2022-09-10T19:34:09.338Z,103023.28
2022-09-10T19:36:37.453Z,103027.84
2022-09-10T19:39:07.457Z,103033.25
2022-09-10T19:41:36.779Z,103036.94
2022-09-10T19:44:08.333Z,103041.56
2022-09-10T19:46:38.944Z,103045.28
2022-09-10T19:49:10.142Z,103058.66
2022-09-10T19:51:39.457Z,103067.63
2022-09-10T19:54:07.919Z,103070.53
2022-09-10T19:56:38.169Z,103077.78
2022-09-10T19:59:08.913Z,103089.38
2022-09-10T20:01:39.236Z,103092.13
2022-09-10T20:04:09.062Z,103096.63
2022-09-10T20:06:37.744Z,103100.25
2022-09-10T20:09:07.716Z,103107.50
2022-09-10T20:11:36.116Z,103112.84
2022-09-10T20:14:08.142Z,103119.13
2022-09-10T20:16:39.065Z,103127.09
2022-09-10T20:19:08.125Z,103123.63
2022-09-10T20:21:37.559Z,103139.56
2022-09-10T20:24:08.040Z,103144.06
2022-09-10T20:26:41.066Z,103145.13
2022-09-10T20:29:12.644Z,103146.94
2022-09-10T20:31:43.732Z,103149.72
2022-09-10T20:34:13.709Z,103145.38
2022-09-10T20:36:42.297Z,103148.09
2022-09-10T20:39:11.725Z,103149.09
2022-09-10T20:41:40.946Z,103164.16
2022-09-10T20:44:09.128Z,103166.00
2022-09-10T20:46:38.150Z,103171.38
2022-09-10T20:49:07.649Z,103182.09
2022-09-10T20:51:38.357Z,103180.44
2022-09-10T20:54:08.563Z,103184.88
2022-09-10T20:56:36.598Z,103189.38
2022-09-10T20:59:04.890Z,103185.19
2022-09-10T21:01:33.187Z,103188.00
2022-09-10T21:04:03.129Z,103175.81
2022-09-10T21:06:34.591Z,103174.16
2022-09-10T21:09:03.371Z,103175.13
2022-09-10T21:11:33.693Z,103176.13
2022-09-10T21:14:03.310Z,103166.56
2022-09-10T21:16:33.302Z,103167.53
2022-09-10T21:19:02.478Z,103170.25
2022-09-10T21:21:34.283Z,103165.00
2022-09-10T21:24:03.465Z,103168.63
2022-09-10T21:26:35.487Z,103173.13
2022-09-10T21:29:06.384Z,103171.47
2022-09-10T21:31:36.714Z,103168.13
2022-09-10T21:34:05.806Z,103178.69
2022-09-10T21:36:37.586Z,103176.13
2022-09-10T21:39:09.959Z,103177.88
2022-09-10T21:41:40.646Z,103177.09
2022-09-10T21:44:14.292Z,103179.81
2022-09-10T21:46:43.020Z,103178.13
2022-09-10T21:49:11.411Z,103179.94
2022-09-10T21:51:41.464Z,103180.06
2022-09-10T21:54:14.402Z,103175.81
2022-09-10T21:56:42.626Z,103175.97
2022-09-10T21:59:12.346Z,103168.22
2022-09-10T22:01:43.921Z,103168.28
2022-09-10T22:04:12.684Z,103178.84
2022-09-10T22:06:42.709Z,103180.66
2022-09-10T22:09:12.753Z,103176.28
2022-09-10T22:11:43.186Z,103180.78
2022-09-10T22:14:16.098Z,103178.22
2022-09-10T22:16:45.560Z,103177.41
2022-09-10T22:19:15.909Z,103178.31
2022-09-10T22:21:45.433Z,103184.47
2022-09-10T22:24:17.468Z,103182.72
2022-09-10T22:26:46.052Z,103190.69
2022-09-10T22:29:16.496Z,103191.56
2022-09-10T22:31:44.584Z,103179.28
2022-09-10T22:34:14.645Z,103174.06
2022-09-10T22:36:45.886Z,103172.34
2022-09-10T22:39:16.241Z,103172.41
2022-09-10T22:41:45.371Z,103172.47
2022-09-10T22:44:13.425Z,103177.03
2022-09-10T22:46:43.138Z,103171.94
2022-09-10T22:49:11.481Z,103168.56
2022-09-10T22:51:42.041Z,103163.47
2022-09-10T22:54:11.856Z,103159.16
2022-09-10T22:56:40.267Z,103146.03
2022-09-10T22:59:12.249Z,103158.47
2022-09-10T23:01:41.109Z,103155.06
2022-09-10T23:04:12.557Z,103150.75
2022-09-10T23:06:41.211Z,103154.25
2022-09-10T23:09:12.772Z,103154.28
2022-09-10T23:11:42.392Z,103155.25
2022-09-10T23:14:13.533Z,103150.97
2022-09-10T23:16:43.356Z,103158.91
2022-09-10T23:19:14.225Z,103150.09
2022-09-10T23:21:43.677Z,103145.69
2022-09-10T23:24:16.056Z,103149.19
2022-09-10T23:26:45.053Z,103146.56
2022-09-10T23:29:17.107Z,103150.97
2022-09-10T23:31:46.232Z,103146.56
2022-09-10T23:34:16.117Z,103142.19
2022-09-10T23:36:46.948Z,103137.06
2022-09-10T23:39:19.844Z,103149.34
2022-09-10T23:41:48.434Z,103152.09
2022-09-10T23:44:17.084Z,103154.00
2022-09-10T23:46:45.759Z,103153.16
2022-09-10T23:49:13.839Z,103152.31
2022-09-10T23:51:42.244Z,103155.84
2022-09-10T23:54:10.857Z,103161.19
2022-09-10T23:56:40.778Z,103162.06
2022-09-10T23:59:09.334Z,103158.56
